Archival Weather

Central Park

Central Park, New York (KNYC)

Report from: Thursday, September 21, 2023 6:51 AM EDT
Current time: Sunday, February 25, 2024 5:04 PM EST

Current weather – Weather history – Daily summaries
Weather forecast

Temperature14.4°C (57.9°F)
Dew point9.4°C (48.9°F)
Winds 3 kts (1.5 m/s, 3.5 mph) North-Northwest (330°)
Visibility10 mi. (16.1 km)
Clouds Sky clear
Altimeter30.28 in.Hg (1025 mB)
Relative humidity72 %
Density altitude-286 ft. (-87 m)
Sea-level pressure102.5 kPa (1025 mB, 30.26 in.Hg)
Remarks Fully automated report
System requires maintenance
Automated weather observing station with precipitation discriminator
Flight conditions Visual Meteorological Conditions
Raw dataKNYC 211051Z AUTO 33003KT 10SM CLR 14/09 A3028 RMK AO2 SLP246 T01440094 $
An error has occurred. This application may no longer respond until reloaded. Reload 🗙